Hovedside
METAR-TAF:

METAR-TAF

Lufthavner :

Savannakhet, Laos

breddegrad: 16-33-24N, lengdegrad: 104-45-34E, høyde over havet: 155 m

Gjeldene værobservasjon

Denne rapporten ble laget for 12 timer og 42 minutter siden, klokken 06:00 UTC
Vind 2 kt fra Vest-sørvest
Temperatur 26°C
Luftfuktighet 94%
Trykk 1007 hPa
Sikt: 6000 m
Spredte skyer i en høyde av 1700 ft
Overskyet i en høyde av 9300 ft
regn,

METAR: VLSK 150600Z 24002KT 6000 RA SCT017 OVC093 26/25 Q1007 NOSIG

Tid: 01:42 (18:42 UTC)

Varsel

Denne rapporten ble laget for 1 time og 42 minutter siden, klokken 17:00 UTC
Varsel gyldig fra 15. klokken 18 UTC til 16. klokken 18 UTC
Vind 6 kt fra Øst
Sikt: 5000 m
Brutte skyer i en høyde av 1600 ft
Overskyet i en høyde av 10000 ft
lett regn,

TAF: VLSK 151700Z 1518/1618 09006KT 5000 -RA BKN016 OVC100

Værobservasjoner og værvarsel for over 4000 flyplasser (METAR- og TAF-rapporter).

Tilgjengelige stasjoner er representert av de røde og gule prikkene på kartet.

Hold musepekeren over prikken for å se navnet på stasjonen.

Klikk så for å se værobservasjoner og -varsler.

For å forandre kartet kan du klikke på den grønne knappen med svart kryss for å zoome inn, på den grønne knappen med strek for å zoome ut, eller på de grønne pilene for å se tilstøtende kart.


METAR-TAF: